createdAt,value
2024-05-09T00:00:42.899Z,34.42
2024-05-09T00:03:11.982Z,29.05
2024-05-09T00:05:46.253Z,33.53
2024-05-09T00:08:14.055Z,33.70
2024-05-09T00:10:41.911Z,33.28
2024-05-09T00:13:11.253Z,34.28
2024-05-09T00:15:39.277Z,41.75
2024-05-09T00:18:08.894Z,33.47
2024-05-09T00:20:39.918Z,30.20
2024-05-09T00:23:13.821Z,36.28
2024-05-09T00:25:43.261Z,30.15
2024-05-09T00:28:12.249Z,32.05
2024-05-09T00:30:40.578Z,31.70
2024-05-09T00:33:10.313Z,34.50
2024-05-09T00:35:39.800Z,35.45
2024-05-09T00:38:08.268Z,34.35
2024-05-09T00:40:40.973Z,32.15
2024-05-09T00:43:14.959Z,31.98
2024-05-09T00:45:44.180Z,36.10
2024-05-09T00:48:16.511Z,31.05
2024-05-09T00:50:47.405Z,30.08
2024-05-09T00:53:16.572Z,31.35
2024-05-09T00:55:44.953Z,32.92
2024-05-09T00:58:15.859Z,31.17
2024-05-09T01:03:14.148Z,29.58
2024-05-09T01:05:43.629Z,25.53
2024-05-09T01:08:12.430Z,29.13
2024-05-09T01:10:43.771Z,34.78
2024-05-09T01:13:13.093Z,28.48
2024-05-09T01:15:41.278Z,29.27
2024-05-09T01:18:12.100Z,28.20
2024-05-09T01:20:43.855Z,30.33
2024-05-09T01:23:15.385Z,30.70
2024-05-09T01:25:45.966Z,30.92
2024-05-09T01:28:15.129Z,30.13
2024-05-09T01:30:43.160Z,35.90
2024-05-09T01:33:12.199Z,33.15
2024-05-09T01:35:42.318Z,27.40
2024-05-09T01:38:17.062Z,28.15
2024-05-09T01:40:46.193Z,32.55
2024-05-09T01:43:13.990Z,35.03
2024-05-09T01:45:41.961Z,32.80
2024-05-09T01:48:10.774Z,29.00
2024-05-09T01:50:41.942Z,32.17
2024-05-09T01:53:13.529Z,30.63
2024-05-09T01:58:09.643Z,27.33
2024-05-09T02:00:42.186Z,28.75
2024-05-09T02:03:15.649Z,30.25
2024-05-09T02:05:47.240Z,30.92
2024-05-09T02:08:22.415Z,30.80
2024-05-09T02:10:50.839Z,28.17
2024-05-09T02:13:19.084Z,27.40
2024-05-09T02:15:46.776Z,27.30
2024-05-09T02:18:14.642Z,26.45
2024-05-09T02:20:43.254Z,29.25
2024-05-09T02:23:11.987Z,24.65
2024-05-09T02:25:41.066Z,31.02
2024-05-09T02:28:08.718Z,24.13
2024-05-09T02:30:40.569Z,25.10
2024-05-09T02:33:12.681Z,27.98
2024-05-09T02:35:43.679Z,22.48
2024-05-09T02:38:12.754Z,24.83
2024-05-09T02:40:41.011Z,27.45
2024-05-09T02:43:10.699Z,27.23
2024-05-09T02:45:40.409Z,24.25
2024-05-09T02:48:12.781Z,26.92
2024-05-09T02:50:41.846Z,30.00
2024-05-09T02:53:11.276Z,24.60
2024-05-09T02:55:39.542Z,26.02
2024-05-09T02:58:08.078Z,25.42
2024-05-09T03:00:39.879Z,27.25
2024-05-09T03:03:12.749Z,22.63
2024-05-09T03:05:46.219Z,27.95
2024-05-09T03:08:15.420Z,27.23
2024-05-09T03:10:43.378Z,25.08
2024-05-09T03:13:14.894Z,25.85
2024-05-09T03:15:44.714Z,27.35
2024-05-09T03:18:13.542Z,25.13
2024-05-09T03:20:44.010Z,25.73
2024-05-09T03:23:12.425Z,28.38
2024-05-09T03:25:40.367Z,24.42
2024-05-09T03:28:08.029Z,24.45
2024-05-09T03:30:41.100Z,24.85
2024-05-09T03:33:19.234Z,22.38
2024-05-09T03:35:49.107Z,28.85
2024-05-09T03:38:17.574Z,22.08
2024-05-09T03:40:46.596Z,24.27
2024-05-09T03:43:14.905Z,24.65
2024-05-09T03:45:43.281Z,21.17
2024-05-09T03:48:11.855Z,25.30
2024-05-09T03:50:39.972Z,23.95
2024-05-09T03:53:11.313Z,24.33
2024-05-09T03:55:39.587Z,25.65
2024-05-09T03:58:09.957Z,23.05
2024-05-09T04:00:39.571Z,24.48
2024-05-09T04:03:11.193Z,22.33
2024-05-09T04:05:42.454Z,21.90
2024-05-09T04:08:15.154Z,23.90
2024-05-09T04:10:43.215Z,22.75
2024-05-09T04:13:11.126Z,24.48
2024-05-09T04:15:39.386Z,21.33
2024-05-09T04:18:07.735Z,22.38
2024-05-09T04:20:39.316Z,24.98
2024-05-09T04:23:13.967Z,23.70
2024-05-09T04:25:44.585Z,24.10
2024-05-09T04:28:13.280Z,21.52
2024-05-09T04:30:41.955Z,19.20
2024-05-09T04:33:12.555Z,19.73
2024-05-09T04:35:43.402Z,23.90
2024-05-09T04:38:12.206Z,19.90
2024-05-09T04:40:39.972Z,23.27
2024-05-09T04:43:15.139Z,20.20
2024-05-09T04:45:43.284Z,19.45
2024-05-09T04:48:11.394Z,25.08
2024-05-09T04:50:39.987Z,19.88
2024-05-09T04:53:09.896Z,24.58
2024-05-09T04:55:40.223Z,18.25
2024-05-09T04:58:11.834Z,18.25
2024-05-09T05:00:40.701Z,19.42
2024-05-09T05:03:13.825Z,21.60
2024-05-09T05:05:45.330Z,15.93
2024-05-09T05:08:14.543Z,19.27
2024-05-09T05:10:43.262Z,17.98
2024-05-09T05:13:22.821Z,17.35
2024-05-09T05:15:55.622Z,17.40
2024-05-09T05:18:24.494Z,15.48
2024-05-09T05:20:52.759Z,16.75
2024-05-09T05:23:22.185Z,17.38
2024-05-09T05:25:53.225Z,16.33
2024-05-09T05:28:21.690Z,17.52
2024-05-09T05:30:50.021Z,15.50
2024-05-09T05:33:22.537Z,14.48
2024-05-09T05:35:51.231Z,14.18
2024-05-09T05:38:20.027Z,16.63
2024-05-09T05:40:49.588Z,14.90
2024-05-09T05:43:18.578Z,16.90
2024-05-09T05:45:46.602Z,19.25
2024-05-09T05:48:18.125Z,16.88
2024-05-09T05:50:46.512Z,20.83
2024-05-09T05:53:14.570Z,15.80
2024-05-09T05:55:42.444Z,13.55
2024-05-09T05:58:10.934Z,16.75
2024-05-09T06:00:41.066Z,16.85
2024-05-09T06:03:10.826Z,16.92
2024-05-09T06:05:40.495Z,16.50
2024-05-09T06:08:08.879Z,15.68
2024-05-09T06:10:39.774Z,17.02
2024-05-09T06:13:13.728Z,15.43
2024-05-09T06:15:42.725Z,17.35
2024-05-09T06:18:12.212Z,15.93
2024-05-09T06:20:42.872Z,14.40
2024-05-09T06:23:12.501Z,14.82
2024-05-09T06:25:40.715Z,14.07
2024-05-09T06:28:08.490Z,17.70
2024-05-09T06:30:40.473Z,13.82
2024-05-09T06:33:12.823Z,16.33
2024-05-09T06:35:43.481Z,15.32
2024-05-09T06:38:11.806Z,17.10
2024-05-09T06:40:42.574Z,17.02
2024-05-09T06:43:13.175Z,17.02
2024-05-09T06:45:41.150Z,14.77
2024-05-09T06:48:10.140Z,16.45
2024-05-09T06:50:39.900Z,13.52
2024-05-09T06:53:08.702Z,17.88
2024-05-09T06:55:37.097Z,17.67
2024-05-09T06:58:07.079Z,15.85
2024-05-09T07:00:39.497Z,14.77
2024-05-09T07:03:15.862Z,14.48
2024-05-09T07:05:46.823Z,17.52
2024-05-09T07:08:15.847Z,16.07
2024-05-09T07:10:44.452Z,19.63
2024-05-09T07:13:14.196Z,15.07
2024-05-09T07:15:42.627Z,17.35
2024-05-09T07:18:18.476Z,15.95
2024-05-09T07:20:48.387Z,14.45
2024-05-09T07:23:16.956Z,14.52
2024-05-09T07:25:44.982Z,16.60
2024-05-09T07:28:14.890Z,13.30
2024-05-09T07:30:43.331Z,14.75
2024-05-09T07:33:20.316Z,15.88
2024-05-09T07:35:49.626Z,14.73
2024-05-09T07:38:17.431Z,14.20
2024-05-09T07:40:45.378Z,16.90
2024-05-09T07:43:14.190Z,11.70
2024-05-09T07:45:50.777Z,16.05
2024-05-09T07:52:37.774Z,23.10
2024-05-09T07:53:49.164Z,16.52
2024-05-09T07:56:22.396Z,14.35
2024-05-09T07:58:52.996Z,15.18
2024-05-09T08:01:21.554Z,13.27
2024-05-09T08:03:50.659Z,15.95
2024-05-09T08:06:18.421Z,13.30
2024-05-09T08:08:47.286Z,13.23
2024-05-09T08:11:15.223Z,18.15
2024-05-09T08:13:43.350Z,12.95
2024-05-09T08:16:11.270Z,23.15
2024-05-09T08:18:40.286Z,15.40
2024-05-09T08:21:07.943Z,13.88
2024-05-09T08:23:36.473Z,12.45
2024-05-09T08:26:04.280Z,14.13
2024-05-09T08:28:31.909Z,14.65
2024-05-09T08:31:00.515Z,14.00
2024-05-09T08:33:30.293Z,14.35
2024-05-09T08:35:58.528Z,13.45
2024-05-09T08:38:26.227Z,16.50
2024-05-09T08:40:53.996Z,14.82
2024-05-09T08:43:24.235Z,14.18
2024-05-09T08:45:52.089Z,14.40
2024-05-09T08:48:22.983Z,18.02
2024-05-09T08:50:53.252Z,15.80
2024-05-09T08:55:39.418Z,16.85
2024-05-09T08:58:15.028Z,16.60
2024-05-09T09:00:44.191Z,16.45
2024-05-09T09:03:16.819Z,15.38
2024-05-09T09:06:05.953Z,15.95
2024-05-09T09:08:33.621Z,17.55
2024-05-09T09:11:01.278Z,21.60
2024-05-09T09:13:28.959Z,21.67
2024-05-09T09:16:00.072Z,12.80
2024-05-09T09:18:30.262Z,14.48
2024-05-09T09:20:58.473Z,14.90
2024-05-09T09:23:30.242Z,12.20
2024-05-09T09:26:01.759Z,15.88
2024-05-09T09:28:29.982Z,19.00
2024-05-09T09:31:05.000Z,19.02
2024-05-09T09:33:35.908Z,24.92
2024-05-09T09:36:05.849Z,15.00
2024-05-09T09:38:37.497Z,14.68
2024-05-09T09:41:07.901Z,14.05
2024-05-09T09:43:36.972Z,27.33
2024-05-09T09:46:08.701Z,15.00
2024-05-09T09:48:39.908Z,14.20
2024-05-09T09:51:08.189Z,12.35
2024-05-09T09:53:38.259Z,14.98
2024-05-09T09:56:08.449Z,17.35
2024-05-09T09:58:38.497Z,10.55
2024-05-09T10:01:06.308Z,14.65
2024-05-09T10:03:34.400Z,13.52
2024-05-09T10:06:03.470Z,13.23
2024-05-09T10:08:34.324Z,13.30
2024-05-09T10:11:04.468Z,13.05
2024-05-09T10:13:35.505Z,13.95
2024-05-09T10:16:09.503Z,13.38
2024-05-09T10:18:41.503Z,14.88
2024-05-09T10:21:19.944Z,16.02
2024-05-09T10:24:02.821Z,13.93
2024-05-09T10:26:35.185Z,11.90
2024-05-09T10:29:19.682Z,15.23
2024-05-09T10:31:48.112Z,15.32
2024-05-09T10:34:20.864Z,12.60
2024-05-09T10:36:53.534Z,13.38
2024-05-09T10:39:21.812Z,12.43
2024-05-09T10:41:49.995Z,13.80
2024-05-09T10:44:18.577Z,12.18
2024-05-09T10:46:46.339Z,12.18
2024-05-09T10:49:15.254Z,11.73
2024-05-09T10:51:44.939Z,12.23
2024-05-09T10:54:12.615Z,15.30
2024-05-09T10:56:41.491Z,11.57
2024-05-09T10:59:09.149Z,12.13
2024-05-09T11:01:37.055Z,11.48
2024-05-09T11:04:05.632Z,12.60
2024-05-09T11:06:35.971Z,14.57
2024-05-09T11:09:04.036Z,9.70
2024-05-09T11:11:31.964Z,11.65
2024-05-09T11:13:59.823Z,10.27
2024-05-09T11:16:27.685Z,10.60
2024-05-09T11:18:57.215Z,10.18
2024-05-09T11:21:25.489Z,9.73
2024-05-09T11:23:53.393Z,12.40
2024-05-09T11:26:22.197Z,10.52
2024-05-09T11:28:50.808Z,10.95
2024-05-09T11:31:19.074Z,10.95
2024-05-09T11:33:47.096Z,15.50
2024-05-09T11:36:15.478Z,10.43
2024-05-09T11:38:43.401Z,8.82
2024-05-09T11:41:18.430Z,11.15
2024-05-09T11:43:46.289Z,10.55
2024-05-09T11:46:14.820Z,12.18
2024-05-09T11:48:43.192Z,7.55
2024-05-09T11:51:11.114Z,9.27
2024-05-09T11:53:38.842Z,10.07
2024-05-09T11:56:06.904Z,10.25
2024-05-09T11:58:36.938Z,8.88
2024-05-09T12:01:04.938Z,9.60
2024-05-09T12:03:34.536Z,7.72
2024-05-09T12:06:02.608Z,8.18
2024-05-09T12:08:30.439Z,7.60
2024-05-09T12:10:58.663Z,7.85
2024-05-09T12:13:26.556Z,7.38
2024-05-09T12:15:54.543Z,9.38
2024-05-09T12:18:22.372Z,10.82
2024-05-09T12:20:50.174Z,9.95
2024-05-09T12:23:17.791Z,7.18
2024-05-09T12:25:45.446Z,7.55
2024-05-09T12:28:13.213Z,7.15
2024-05-09T12:30:41.618Z,7.30
2024-05-09T12:33:13.882Z,6.30
2024-05-09T12:35:44.515Z,9.48
2024-05-09T12:38:15.041Z,9.15
2024-05-09T12:40:43.330Z,11.52
2024-05-09T12:43:11.939Z,7.70
2024-05-09T12:45:40.749Z,6.90
2024-05-09T12:48:12.177Z,11.07
2024-05-09T12:50:41.139Z,9.07
2024-05-09T12:53:09.535Z,9.38
2024-05-09T12:55:44.863Z,10.40
2024-05-09T12:58:22.122Z,8.35
2024-05-09T13:00:51.953Z,7.05
2024-05-09T13:03:20.172Z,7.30
2024-05-09T13:05:49.287Z,7.38
2024-05-09T13:08:17.490Z,12.05
2024-05-09T13:10:45.277Z,9.23
2024-05-09T13:13:13.230Z,7.53
2024-05-09T13:15:41.178Z,6.60
2024-05-09T13:18:09.213Z,5.00
2024-05-09T13:20:37.301Z,5.97
2024-05-09T13:23:07.010Z,5.10
2024-05-09T13:25:37.360Z,9.13
2024-05-09T13:28:06.570Z,6.40
2024-05-09T13:30:39.932Z,9.50
2024-05-09T13:33:11.996Z,9.20
2024-05-09T13:35:47.674Z,5.13
2024-05-09T13:38:20.056Z,6.82
2024-05-09T13:40:49.055Z,6.22
2024-05-09T13:43:17.885Z,6.50
2024-05-09T13:45:46.460Z,9.65
2024-05-09T13:48:14.583Z,6.57
2024-05-09T13:50:42.517Z,8.27
2024-05-09T13:53:10.131Z,8.88
2024-05-09T13:55:38.929Z,6.53
2024-05-09T13:58:07.417Z,6.22
2024-05-09T14:03:06.203Z,7.55
2024-05-09T14:05:34.034Z,7.85
2024-05-09T14:08:01.900Z,13.18
2024-05-09T14:10:31.757Z,5.80
2024-05-09T14:13:01.158Z,7.53
2024-05-09T14:15:29.078Z,8.60
2024-05-09T14:17:56.941Z,9.65
2024-05-09T14:20:30.991Z,10.52
2024-05-09T14:23:00.880Z,6.15
2024-05-09T14:25:31.821Z,8.38
2024-05-09T14:27:59.924Z,10.68
2024-05-09T14:30:34.847Z,7.15
2024-05-09T14:33:06.644Z,7.45
2024-05-09T14:35:35.799Z,7.20
2024-05-09T14:38:03.846Z,7.80
2024-05-09T14:43:04.303Z,7.70
2024-05-09T14:45:32.539Z,6.38
2024-05-09T14:48:00.471Z,7.55
2024-05-09T14:50:35.814Z,7.18
2024-05-09T14:53:10.989Z,11.07
2024-05-09T14:55:40.726Z,6.32
2024-05-09T14:58:10.392Z,7.38
2024-05-09T15:00:45.774Z,6.50
2024-05-09T15:03:21.888Z,8.60
2024-05-09T15:05:51.095Z,7.00
2024-05-09T15:08:19.853Z,7.47
2024-05-09T15:10:49.896Z,7.18
2024-05-09T15:13:19.577Z,5.43
2024-05-09T15:15:47.575Z,9.00
2024-05-09T15:18:15.701Z,6.03
2024-05-09T15:20:46.947Z,5.85
2024-05-09T15:23:14.662Z,8.35
2024-05-09T15:25:44.248Z,6.97
2024-05-09T15:28:11.985Z,7.45
2024-05-09T15:30:40.734Z,6.82
2024-05-09T15:33:10.969Z,9.23
2024-05-09T15:35:41.564Z,9.27
2024-05-09T15:38:10.175Z,7.07
2024-05-09T15:40:40.407Z,6.38
2024-05-09T15:43:10.957Z,7.05
2024-05-09T15:45:40.871Z,6.30
2024-05-09T15:48:10.542Z,7.60
2024-05-09T15:50:41.416Z,6.82
2024-05-09T15:53:12.189Z,9.80
2024-05-09T15:55:41.535Z,6.30
2024-05-09T15:58:09.904Z,6.60
2024-05-09T16:00:41.519Z,18.88
2024-05-09T16:03:12.864Z,8.77
2024-05-09T16:05:48.132Z,7.43
2024-05-09T16:08:16.670Z,10.35
2024-05-09T16:10:47.718Z,7.28
2024-05-09T16:13:16.627Z,7.05
2024-05-09T16:15:45.494Z,6.03
2024-05-09T16:18:13.506Z,7.95
2024-05-09T16:20:42.672Z,7.25
2024-05-09T16:23:12.760Z,7.35
2024-05-09T16:25:45.191Z,7.47
2024-05-09T16:28:13.351Z,12.18
2024-05-09T16:30:41.442Z,11.05
2024-05-09T16:33:10.903Z,13.30
2024-05-09T16:35:39.523Z,9.43
2024-05-09T16:38:07.657Z,6.93
2024-05-09T16:40:39.600Z,7.85
2024-05-09T16:43:10.452Z,5.97
2024-05-09T16:45:46.010Z,10.02
2024-05-09T16:48:14.740Z,8.23
2024-05-09T16:50:43.030Z,7.43
2024-05-09T16:53:10.619Z,9.80
2024-05-09T16:55:38.561Z,7.95
2024-05-09T16:58:08.433Z,12.05
2024-05-09T17:00:41.923Z,12.15
2024-05-09T17:03:14.870Z,10.02
2024-05-09T17:05:46.058Z,6.65
2024-05-09T17:08:16.362Z,9.63
2024-05-09T17:10:46.601Z,16.10
2024-05-09T17:15:41.957Z,10.88
2024-05-09T17:18:09.924Z,10.27
2024-05-09T17:20:38.205Z,9.90
2024-05-09T17:23:15.550Z,10.40
2024-05-09T17:25:43.620Z,7.07
2024-05-09T17:28:12.244Z,8.70
2024-05-09T17:30:42.173Z,7.85
2024-05-09T17:33:13.015Z,9.15
2024-05-09T17:35:41.909Z,7.78
2024-05-09T17:38:09.734Z,8.35
2024-05-09T17:40:38.851Z,7.72
2024-05-09T17:43:09.537Z,27.42
2024-05-09T17:45:40.944Z,15.90
2024-05-09T17:48:11.037Z,9.48
2024-05-09T17:50:40.517Z,12.80
2024-05-09T17:53:09.359Z,7.68
2024-05-09T17:55:37.420Z,17.30
2024-05-09T17:58:05.878Z,10.98
2024-05-09T18:00:39.187Z,8.98
2024-05-09T18:03:13.594Z,11.55
2024-05-09T18:05:43.695Z,12.18
2024-05-09T18:08:12.894Z,8.93
2024-05-09T18:10:41.381Z,11.73
2024-05-09T18:13:10.062Z,10.50
2024-05-09T18:15:38.572Z,15.70
2024-05-09T18:18:07.563Z,16.45
2024-05-09T18:20:42.790Z,22.45
2024-05-09T18:23:18.353Z,21.63
2024-05-09T18:25:47.533Z,18.73
2024-05-09T18:28:16.929Z,14.68
2024-05-09T18:30:45.263Z,14.88
2024-05-09T18:33:13.490Z,13.43
2024-05-09T18:35:43.993Z,16.83
2024-05-09T18:38:11.800Z,15.10
2024-05-09T18:40:41.056Z,15.52
2024-05-09T18:43:10.641Z,13.50
2024-05-09T18:45:39.005Z,13.43
2024-05-09T18:48:08.545Z,16.00
2024-05-09T18:50:39.979Z,15.60
2024-05-09T18:53:13.015Z,14.98
2024-05-09T18:55:44.677Z,15.18
2024-05-09T18:58:12.638Z,12.77
2024-05-09T19:00:42.961Z,18.23
2024-05-09T19:03:14.681Z,13.50
2024-05-09T19:05:45.060Z,16.30
2024-05-09T19:08:15.321Z,19.30
2024-05-09T19:10:45.349Z,18.85
2024-05-09T19:13:14.371Z,18.30
2024-05-09T19:15:43.662Z,15.60
2024-05-09T19:18:15.916Z,15.77
2024-05-09T19:20:44.306Z,19.33
2024-05-09T19:23:12.270Z,15.13
2024-05-09T19:25:40.321Z,17.65
2024-05-09T19:28:08.365Z,14.20
2024-05-09T19:30:40.449Z,14.40
2024-05-09T19:33:12.829Z,15.00
2024-05-09T19:35:42.401Z,14.00
2024-05-09T19:38:10.792Z,17.13
2024-05-09T19:40:38.724Z,13.20
2024-05-09T19:43:07.059Z,17.95
2024-05-09T19:45:36.199Z,17.63
2024-05-09T19:48:06.301Z,18.42
2024-05-09T19:53:13.223Z,18.45
2024-05-09T19:55:41.458Z,16.35
2024-05-09T19:58:10.638Z,16.58
2024-05-09T20:00:41.519Z,17.33
2024-05-09T20:03:15.242Z,15.95
2024-05-09T20:05:46.293Z,14.15
2024-05-09T20:10:42.282Z,17.23
2024-05-09T20:13:10.256Z,16.70
2024-05-09T20:15:38.365Z,16.70
2024-05-09T20:18:07.829Z,12.63
2024-05-09T20:20:39.966Z,17.88
2024-05-09T20:23:11.614Z,16.98
2024-05-09T20:25:39.618Z,15.18
2024-05-09T20:28:07.587Z,16.27
2024-05-09T20:30:36.247Z,18.35
2024-05-09T20:33:07.498Z,15.38
2024-05-09T20:35:36.624Z,17.60
2024-05-09T20:38:04.874Z,16.75
2024-05-09T20:40:37.069Z,16.27
2024-05-09T20:43:08.555Z,16.98
2024-05-09T20:45:36.873Z,17.15
2024-05-09T20:48:05.600Z,18.70
2024-05-09T20:50:39.155Z,18.50
2024-05-09T20:53:11.267Z,18.33
2024-05-09T20:55:40.032Z,17.83
2024-05-09T20:58:09.427Z,16.33
2024-05-09T21:00:41.025Z,17.85
2024-05-09T21:03:13.809Z,13.52
2024-05-09T21:05:42.696Z,17.17
2024-05-09T21:08:10.432Z,18.95
2024-05-09T21:10:38.324Z,18.80
2024-05-09T21:13:07.044Z,16.92
2024-05-09T21:15:35.912Z,18.48
2024-05-09T21:18:04.592Z,16.42
2024-05-09T21:20:34.923Z,14.93
2024-05-09T21:23:03.545Z,16.38
2024-05-09T21:25:32.014Z,18.35
2024-05-09T21:28:00.756Z,16.75
2024-05-09T21:30:38.472Z,17.95
2024-05-09T21:33:12.555Z,18.73
2024-05-09T21:35:45.561Z,25.17
2024-05-09T21:38:14.709Z,18.80
2024-05-09T21:40:43.310Z,22.80
2024-05-09T21:43:11.029Z,19.13
2024-05-09T21:45:38.970Z,20.00
2024-05-09T21:48:07.581Z,21.33
2024-05-09T21:50:40.415Z,21.20
2024-05-09T21:53:11.769Z,18.88
2024-05-09T21:55:39.982Z,19.77
2024-05-09T21:58:08.116Z,19.63
2024-05-09T22:00:39.223Z,21.15
2024-05-09T22:03:08.774Z,19.08
2024-05-09T22:05:38.078Z,18.23
2024-05-09T22:08:06.202Z,21.48
2024-05-09T22:10:36.193Z,16.33
2024-05-09T22:13:06.428Z,19.55
2024-05-09T22:15:37.071Z,14.85
2024-05-09T22:18:06.508Z,13.77
2024-05-09T22:20:38.270Z,19.58
2024-05-09T22:23:08.614Z,17.25
2024-05-09T22:25:37.246Z,14.32
2024-05-09T22:28:05.554Z,13.50
2024-05-09T22:30:37.386Z,17.48
2024-05-09T22:33:09.071Z,14.40
2024-05-09T22:38:06.090Z,15.95
2024-05-09T22:40:43.327Z,13.57
2024-05-09T22:43:21.107Z,16.67
2024-05-09T22:45:51.096Z,15.77
2024-05-09T22:48:19.381Z,14.38
2024-05-09T22:50:47.214Z,14.27
2024-05-09T22:53:14.992Z,14.82
2024-05-09T22:55:42.868Z,14.10
2024-05-09T22:58:10.533Z,13.70
2024-05-09T23:00:38.386Z,14.65
2024-05-09T23:03:06.375Z,11.68
2024-05-09T23:05:34.254Z,12.70
2024-05-09T23:08:02.737Z,15.40
2024-05-09T23:10:36.044Z,10.93
2024-05-09T23:13:08.826Z,11.13
2024-05-09T23:15:38.433Z,12.63
2024-05-09T23:18:08.479Z,10.50
2024-05-09T23:20:39.131Z,9.00
2024-05-09T23:23:10.439Z,10.73
2024-05-09T23:25:43.218Z,10.75
2024-05-09T23:28:11.512Z,9.00
2024-05-09T23:30:41.058Z,11.63
2024-05-09T23:33:13.921Z,10.20
2024-05-09T23:35:44.175Z,10.65
2024-05-09T23:38:12.704Z,12.17
2024-05-09T23:40:41.817Z,12.25
2024-05-09T23:43:12.384Z,10.57
2024-05-09T23:45:41.183Z,9.55
2024-05-09T23:48:09.627Z,10.48
2024-05-09T23:50:39.311Z,9.27
2024-05-09T23:53:09.463Z,12.15
2024-05-09T23:55:38.500Z,9.50
2024-05-09T23:58:07.435Z,10.85
